Time;durP1;ratioP1;P1;durP2;ratioP2;P2;SDS_P1;SDS_P2;PMS_P1;PMS_P2;Temp;Humidity;BMP_temperature;BMP_pressure;BME280_temperature;BME280_humidity;BME280_pressure;Samples;Min_cycle;Max_cycle;Signal;HPM_P1;HPM_P2
2022/09/13 00:00:32;;;;;;;13.60;9.33;;;;;;;;;;4952566;29;20727;-64
2022/09/13 00:02:59;;;;;;;14.30;8.60;;;;;;;;;;4951518;28;20193;-63
2022/09/13 00:05:25;;;;;;;13.23;8.97;;;;;;;;;;4951538;28;20198;-64
2022/09/13 00:07:52;;;;;;;15.53;9.40;;;;;;;;;;4952136;29;20206;-64
2022/09/13 00:10:19;;;;;;;15.03;9.90;;;;;;;;;;4952363;29;20190;-63
2022/09/13 00:12:49;;;;;;;15.60;10.00;;;;;;;;;;4952338;29;20627;-63
2022/09/13 00:15:15;;;;;;;13.67;9.50;;;;;;;;;;4952195;29;20198;-64
2022/09/13 00:17:42;;;;;;;13.67;9.60;;;;;;;;;;4951650;28;20257;-63
2022/09/13 00:20:09;;;;;;;11.33;8.20;;;;;;;;;;4952414;29;20198;-64
2022/09/13 00:22:36;;;;;;;12.43;8.50;;;;;;;;;;4952254;29;20594;-64
2022/09/13 00:25:20;;;;;;;12.70;9.17;;;;;;;;;;4952159;29;20186;-65
2022/09/13 00:27:47;;;;;;;22.73;9.77;;;;;;;;;;4951983;29;20586;-64
2022/09/13 00:30:13;;;;;;;24.33;9.93;;;;;;;;;;4951853;29;20242;-63
2022/09/13 00:32:40;;;;;;;20.17;9.57;;;;;;;;;;4951106;28;20228;-64
2022/09/13 00:35:07;;;;;;;15.67;9.23;;;;;;;;;;4952142;29;20198;-63
2022/09/13 00:37:34;;;;;;;11.47;8.57;;;;;;;;;;4951911;29;20205;-64
2022/09/13 00:40:01;;;;;;;12.70;7.70;;;;;;;;;;4951955;29;20477;-64
2022/09/13 00:42:28;;;;;;;12.80;8.57;;;;;;;;;;4951699;29;20190;-64
2022/09/13 00:44:59;;;;;;;11.17;8.30;;;;;;;;;;4951866;29;20202;-64
2022/09/13 00:47:40;;;;;;;17.20;9.13;;;;;;;;;;4951533;28;20293;-68
2022/09/13 00:50:13;;;;;;;16.13;8.93;;;;;;;;;;4945393;29;20277;-64
2022/09/13 00:52:40;;;;;;;13.53;8.97;;;;;;;;;;4951276;29;20273;-63
2022/09/13 00:55:35;;;;;;;13.07;8.77;;;;;;;;;;4935388;29;20465;-65
2022/09/13 00:58:03;;;;;;;12.53;7.70;;;;;;;;;;4951129;29;20205;-63
2022/09/13 01:00:30;;;;;;;11.03;7.87;;;;;;;;;;4934534;29;20442;-63
2022/09/13 01:02:57;;;;;;;15.77;9.30;;;;;;;;;;4934316;29;20261;-64
2022/09/13 01:05:26;;;;;;;17.00;8.97;;;;;;;;;;4949828;28;20190;-66
2022/09/13 01:07:54;;;;;;;13.33;7.87;;;;;;;;;;4951669;29;20438;-66
2022/09/13 01:10:22;;;;;;;13.67;8.40;;;;;;;;;;4951302;29;20441;-65
2022/09/13 01:12:56;;;;;;;12.93;8.03;;;;;;;;;;4951417;29;20701;-64
2022/09/13 01:15:23;;;;;;;12.93;8.40;;;;;;;;;;4950370;29;21172;-64
2022/09/13 01:17:50;;;;;;;11.60;8.10;;;;;;;;;;4949767;28;20586;-64
2022/09/13 01:20:16;;;;;;;12.83;8.00;;;;;;;;;;4950430;29;20658;-64
2022/09/13 01:22:43;;;;;;;12.20;8.10;;;;;;;;;;4950053;28;20445;-66
2022/09/13 01:25:28;;;;;;;11.03;7.70;;;;;;;;;;4950970;29;20444;-65
2022/09/13 01:28:10;;;;;;;11.57;7.50;;;;;;;;;;4950887;29;20473;-66
2022/09/13 01:30:39;;;;;;;12.03;7.27;;;;;;;;;;4938278;29;20218;-64
2022/09/13 01:33:25;;;;;;;11.43;7.60;;;;;;;;;;4949463;29;20206;-64
2022/09/13 01:36:01;;;;;;;12.87;7.53;;;;;;;;;;4939246;29;20221;-65
2022/09/13 01:38:47;;;;;;;11.93;7.03;;;;;;;;;;4951179;29;20437;-64
2022/09/13 01:41:23;;;;;;;10.13;7.20;;;;;;;;;;4950448;28;20449;-64
2022/09/13 01:44:10;;;;;;;11.77;7.90;;;;;;;;;;4950910;29;20540;-65
2022/09/13 01:46:48;;;;;;;12.17;7.17;;;;;;;;;;4921227;29;20221;-64
2022/09/13 01:49:15;;;;;;;11.00;6.97;;;;;;;;;;4949924;29;20201;-64
2022/09/13 01:51:44;;;;;;;10.57;7.40;;;;;;;;;;4950916;29;20438;-64
2022/09/13 01:54:12;;;;;;;9.77;7.27;;;;;;;;;;4950721;29;20496;-64
2022/09/13 01:56:44;;;;;;;11.37;7.30;;;;;;;;;;4950088;28;20497;-64
2022/09/13 01:59:27;;;;;;;10.87;7.30;;;;;;;;;;4949961;29;20441;-64
2022/09/13 02:01:55;;;;;;;10.03;7.27;;;;;;;;;;4950964;28;20762;-64
2022/09/13 02:04:23;;;;;;;10.90;6.67;;;;;;;;;;4949777;29;20446;-65
2022/09/13 02:06:58;;;;;;;11.43;7.00;;;;;;;;;;4949275;29;20221;-64
2022/09/13 02:09:25;;;;;;;11.17;6.93;;;;;;;;;;4950762;29;20984;-64
2022/09/13 02:12:00;;;;;;;10.77;6.93;;;;;;;;;;4936453;29;20779;-65
2022/09/13 02:14:28;;;;;;;12.23;7.47;;;;;;;;;;4950539;28;20991;-64
2022/09/13 02:17:02;;;;;;;13.27;7.70;;;;;;;;;;4950220;29;20501;-64
2022/09/13 02:19:35;;;;;;;10.50;7.53;;;;;;;;;;4950986;29;20524;-64
2022/09/13 02:22:02;;;;;;;12.80;8.03;;;;;;;;;;4950439;29;20531;-64
2022/09/13 02:24:33;;;;;;;14.03;8.03;;;;;;;;;;4950875;29;20493;-64
2022/09/13 02:27:01;;;;;;;12.50;6.77;;;;;;;;;;4949271;29;20538;-65
2022/09/13 02:29:28;;;;;;;13.20;7.50;;;;;;;;;;4950877;28;20441;-64
2022/09/13 02:31:57;;;;;;;9.20;6.50;;;;;;;;;;4953072;28;20241;-64
2022/09/13 02:34:25;;;;;;;9.63;6.80;;;;;;;;;;4954396;28;20572;-64
2022/09/13 02:36:51;;;;;;;10.47;6.63;;;;;;;;;;4953946;29;20524;-64
2022/09/13 02:39:19;;;;;;;10.10;6.60;;;;;;;;;;4952823;29;20496;-64
2022/09/13 02:41:54;;;;;;;9.90;6.90;;;;;;;;;;4953822;29;20945;-65
2022/09/13 02:44:30;;;;;;;11.83;6.70;;;;;;;;;;4937205;29;20441;-64
2022/09/13 02:47:06;;;;;;;11.17;6.70;;;;;;;;;;4953715;29;20609;-64
2022/09/13 02:49:51;;;;;;;12.87;7.77;;;;;;;;;;4953279;28;20832;-64
2022/09/13 02:52:27;;;;;;;13.67;8.20;;;;;;;;;;4953172;29;20497;-65
2022/09/13 02:54:59;;;;;;;14.57;7.40;;;;;;;;;;4953928;29;21285;-65
2022/09/13 02:57:30;;;;;;;12.07;7.50;;;;;;;;;;4936501;29;20521;-65
2022/09/13 02:59:57;;;;;;;11.43;7.30;;;;;;;;;;4948917;29;20441;-66
2022/09/13 03:02:24;;;;;;;9.63;6.37;;;;;;;;;;4953071;29;20454;-67
2022/09/13 03:04:51;;;;;;;8.80;6.27;;;;;;;;;;4952494;28;20991;-68
2022/09/13 03:07:18;;;;;;;8.77;6.00;;;;;;;;;;4952943;29;20274;-70
2022/09/13 03:09:46;;;;;;;11.90;7.10;;;;;;;;;;4951503;29;20438;-70
2022/09/13 03:12:16;;;;;;;10.50;7.10;;;;;;;;;;4938133;29;20441;-70
2022/09/13 03:14:43;;;;;;;9.00;6.40;;;;;;;;;;4954701;29;20458;-70
2022/09/13 03:17:10;;;;;;;13.37;7.47;;;;;;;;;;4952225;29;20186;-70
2022/09/13 03:19:49;;;;;;;23.10;11.60;;;;;;;;;;4952663;29;20845;-70
2022/09/13 03:22:25;;;;;;;11.43;7.10;;;;;;;;;;4951740;28;20861;-70
2022/09/13 03:25:15;;;;;;;19.70;11.47;;;;;;;;;;4938271;29;20437;-70
2022/09/13 03:27:41;;;;;;;23.33;12.17;;;;;;;;;;4925070;29;20541;-70
2022/09/13 03:30:10;;;;;;;17.20;9.80;;;;;;;;;;4952486;29;20556;-68
2022/09/13 03:32:40;;;;;;;14.30;9.27;;;;;;;;;;4951587;29;20979;-69
2022/09/13 03:35:09;;;;;;;10.20;6.30;;;;;;;;;;4940215;29;20429;-70
2022/09/13 03:37:42;;;;;;;9.10;6.50;;;;;;;;;;4950334;28;20454;-68
2022/09/13 03:40:10;;;;;;;14.97;9.00;;;;;;;;;;4948679;28;20456;-69
2022/09/13 03:42:42;;;;;;;12.73;7.43;;;;;;;;;;4917687;29;21064;-68
2022/09/13 03:45:08;;;;;;;12.00;7.73;;;;;;;;;;4952977;29;20450;-68
2022/09/13 03:47:35;;;;;;;18.13;9.47;;;;;;;;;;4924118;29;20794;-69
2022/09/13 03:50:03;;;;;;;17.17;9.57;;;;;;;;;;4934380;29;20445;-69
2022/09/13 03:52:29;;;;;;;15.93;9.43;;;;;;;;;;4934047;29;20848;-68
2022/09/13 03:54:56;;;;;;;28.07;14.37;;;;;;;;;;4952016;29;20496;-70
2022/09/13 03:57:23;;;;;;;19.40;10.27;;;;;;;;;;4925696;29;21144;-69
2022/09/13 03:59:50;;;;;;;16.20;8.53;;;;;;;;;;4945479;29;20450;-70
2022/09/13 04:02:17;;;;;;;10.37;7.13;;;;;;;;;;4927009;29;20492;-68
2022/09/13 04:04:44;;;;;;;16.97;10.40;;;;;;;;;;4944395;29;21776;-69
2022/09/13 04:07:12;;;;;;;14.20;7.27;;;;;;;;;;4943032;29;20477;-68
2022/09/13 04:09:39;;;;;;;11.80;6.97;;;;;;;;;;4944193;29;20485;-68
2022/09/13 04:12:07;;;;;;;11.07;6.53;;;;;;;;;;4943860;28;20449;-67
2022/09/13 04:14:34;;;;;;;10.63;6.53;;;;;;;;;;4938762;29;20479;-67
2022/09/13 04:17:01;;;;;;;9.30;6.73;;;;;;;;;;4952701;29;20517;-67
2022/09/13 04:19:28;;;;;;;12.20;7.20;;;;;;;;;;4951115;29;20453;-68
2022/09/13 04:21:55;;;;;;;12.30;8.23;;;;;;;;;;4946137;29;20461;-67
2022/09/13 04:24:23;;;;;;;9.97;6.83;;;;;;;;;;4952166;29;20442;-67
2022/09/13 04:26:50;;;;;;;11.27;6.23;;;;;;;;;;4951055;28;20450;-60
2022/09/13 04:29:17;;;;;;;10.07;6.37;;;;;;;;;;4952296;29;20500;-60
2022/09/13 04:31:44;;;;;;;10.27;6.47;;;;;;;;;;4949750;29;20513;-61
2022/09/13 04:34:11;;;;;;;12.83;6.77;;;;;;;;;;4943532;28;20815;-61
2022/09/13 04:36:38;;;;;;;11.97;7.77;;;;;;;;;;4950213;29;20441;-61
2022/09/13 04:39:05;;;;;;;11.47;7.43;;;;;;;;;;4940584;29;20480;-60
2022/09/13 04:41:33;;;;;;;12.97;6.73;;;;;;;;;;4942140;28;20457;-61
2022/09/13 04:44:00;;;;;;;9.93;6.50;;;;;;;;;;4944276;28;20468;-60
2022/09/13 04:46:27;;;;;;;13.80;7.50;;;;;;;;;;4943881;29;20201;-60
2022/09/13 04:48:54;;;;;;;10.67;6.70;;;;;;;;;;4944308;29;21150;-61
2022/09/13 04:51:21;;;;;;;8.83;6.13;;;;;;;;;;4943750;28;20426;-61
2022/09/13 04:53:54;;;;;;;13.53;7.37;;;;;;;;;;4944116;29;20233;-60
2022/09/13 04:56:22;;;;;;;11.47;6.47;;;;;;;;;;4945005;29;20477;-60
2022/09/13 04:58:52;;;;;;;12.10;7.37;;;;;;;;;;4946677;28;20476;-60
2022/09/13 05:01:18;;;;;;;14.50;7.57;;;;;;;;;;4949555;29;20461;-61
2022/09/13 05:03:46;;;;;;;15.57;7.30;;;;;;;;;;4950435;28;20426;-60
2022/09/13 05:06:16;;;;;;;13.47;7.13;;;;;;;;;;4950852;29;20477;-60
2022/09/13 05:08:43;;;;;;;12.83;7.67;;;;;;;;;;4950589;29;20205;-60
2022/09/13 05:11:10;;;;;;;10.47;6.93;;;;;;;;;;4945581;29;20464;-60
2022/09/13 05:13:38;;;;;;;12.37;7.70;;;;;;;;;;4950905;29;20202;-60
2022/09/13 05:16:05;;;;;;;11.80;7.83;;;;;;;;;;4947760;28;20256;-60
2022/09/13 05:18:32;;;;;;;15.33;8.30;;;;;;;;;;4949908;29;20205;-60
2022/09/13 05:20:59;;;;;;;13.23;8.30;;;;;;;;;;4950946;29;20236;-60
2022/09/13 05:23:26;;;;;;;11.43;7.57;;;;;;;;;;4951863;28;20256;-60
2022/09/13 05:25:56;;;;;;;12.67;7.63;;;;;;;;;;4951116;29;20198;-60
2022/09/13 05:28:23;;;;;;;13.43;8.37;;;;;;;;;;4951186;29;20222;-60
2022/09/13 05:30:53;;;;;;;14.00;8.13;;;;;;;;;;4950977;29;20593;-60
2022/09/13 05:33:20;;;;;;;15.60;8.73;;;;;;;;;;4950606;28;20210;-60
2022/09/13 05:35:49;;;;;;;13.47;8.23;;;;;;;;;;4950696;29;20198;-60
2022/09/13 05:38:16;;;;;;;13.20;7.67;;;;;;;;;;4951358;29;20197;-60
2022/09/13 05:40:42;;;;;;;13.70;8.37;;;;;;;;;;4950869;29;20926;-60
2022/09/13 05:43:09;;;;;;;10.43;7.23;;;;;;;;;;4934017;29;20202;-60
2022/09/13 05:45:36;;;;;;;15.13;8.20;;;;;;;;;;4949616;28;20198;-60
2022/09/13 05:48:20;;;;;;;13.30;7.80;;;;;;;;;;4950386;28;20314;-60
2022/09/13 05:50:47;;;;;;;12.67;7.93;;;;;;;;;;4933650;29;20225;-60
2022/09/13 05:53:24;;;;;;;10.97;7.50;;;;;;;;;;4951096;29;20245;-61
2022/09/13 05:55:50;;;;;;;10.20;7.63;;;;;;;;;;4950904;29;20194;-60
2022/09/13 05:58:17;;;;;;;12.27;7.37;;;;;;;;;;4950632;29;20194;-60
2022/09/13 06:00:44;;;;;;;10.33;7.10;;;;;;;;;;4950755;29;20202;-60
2022/09/13 06:03:10;;;;;;;10.43;7.50;;;;;;;;;;4951664;28;20256;-60
2022/09/13 06:05:37;;;;;;;10.00;7.30;;;;;;;;;;4953281;28;20315;-60
2022/09/13 06:08:04;;;;;;;9.40;6.20;;;;;;;;;;4954751;29;20253;-60
2022/09/13 06:10:31;;;;;;;9.90;5.53;;;;;;;;;;4953287;28;20200;-60
2022/09/13 06:12:57;;;;;;;8.27;5.40;;;;;;;;;;4954646;29;20210;-60
2022/09/13 06:15:24;;;;;;;8.97;5.33;;;;;;;;;;4954172;29;20229;-60
2022/09/13 06:17:51;;;;;;;7.03;4.80;;;;;;;;;;4937842;29;20233;-60
2022/09/13 06:20:17;;;;;;;5.40;4.13;;;;;;;;;;4954065;28;20194;-60
2022/09/13 06:22:46;;;;;;;8.97;5.07;;;;;;;;;;4954345;29;20190;-60
2022/09/13 06:25:12;;;;;;;7.83;4.60;;;;;;;;;;4954438;29;20254;-60
2022/09/13 06:27:39;;;;;;;6.60;4.23;;;;;;;;;;4954322;29;20253;-60
2022/09/13 06:30:07;;;;;;;6.10;4.40;;;;;;;;;;4954358;29;20669;-60
2022/09/13 06:32:34;;;;;;;6.13;3.90;;;;;;;;;;4954518;29;20210;-60
2022/09/13 06:35:01;;;;;;;5.93;3.37;;;;;;;;;;4954415;29;20225;-60
2022/09/13 06:37:28;;;;;;;5.33;3.77;;;;;;;;;;4949189;28;20203;-60
2022/09/13 06:39:55;;;;;;;7.87;4.30;;;;;;;;;;4954121;29;20190;-60
2022/09/13 06:42:22;;;;;;;10.03;4.43;;;;;;;;;;4953493;28;20194;-61
2022/09/13 06:44:49;;;;;;;7.87;4.60;;;;;;;;;;4953883;29;20684;-60
2022/09/13 06:47:16;;;;;;;7.90;4.03;;;;;;;;;;4941935;28;20226;-62
2022/09/13 06:49:44;;;;;;;6.37;3.90;;;;;;;;;;4944063;29;20895;-61
2022/09/13 06:52:11;;;;;;;5.87;3.70;;;;;;;;;;4940295;29;20654;-60
2022/09/13 06:54:38;;;;;;;8.00;4.20;;;;;;;;;;4953382;29;20226;-60
2022/09/13 06:57:05;;;;;;;6.17;3.80;;;;;;;;;;4953837;29;20565;-61
2022/09/13 06:59:33;;;;;;;4.90;3.27;;;;;;;;;;4954130;29;20198;-60
2022/09/13 07:02:01;;;;;;;5.53;3.13;;;;;;;;;;4939153;28;20202;-61
2022/09/13 07:04:30;;;;;;;8.47;3.47;;;;;;;;;;4948727;29;20198;-61
2022/09/13 07:06:57;;;;;;;4.63;3.00;;;;;;;;;;4942080;29;20230;-61
2022/09/13 07:09:24;;;;;;;7.60;3.20;;;;;;;;;;4948416;29;20243;-60
2022/09/13 07:11:53;;;;;;;5.73;3.47;;;;;;;;;;4948300;29;20190;-60
2022/09/13 07:14:21;;;;;;;7.73;3.30;;;;;;;;;;4947652;28;20239;-61
2022/09/13 07:16:48;;;;;;;7.40;3.63;;;;;;;;;;4946669;29;20290;-61
2022/09/13 07:19:15;;;;;;;6.20;3.40;;;;;;;;;;4948546;29;20190;-60
2022/09/13 07:21:42;;;;;;;7.63;3.20;;;;;;;;;;4948389;29;20193;-60
2022/09/13 07:24:09;;;;;;;6.13;3.07;;;;;;;;;;4948125;29;20205;-63
2022/09/13 07:26:36;;;;;;;4.00;3.00;;;;;;;;;;4948597;29;20269;-60
2022/09/13 07:29:04;;;;;;;5.53;3.10;;;;;;;;;;4948186;28;20221;-61
2022/09/13 07:31:32;;;;;;;4.60;3.20;;;;;;;;;;4947634;29;20202;-62
2022/09/13 07:33:59;;;;;;;6.13;3.00;;;;;;;;;;4948318;29;20309;-63
2022/09/13 07:36:27;;;;;;;4.00;3.10;;;;;;;;;;4945902;28;20285;-63
2022/09/13 07:38:54;;;;;;;7.53;3.00;;;;;;;;;;4947771;28;20654;-62
2022/09/13 07:41:21;;;;;;;4.27;3.10;;;;;;;;;;4948086;29;20861;-61
2022/09/13 07:43:48;;;;;;;5.50;2.73;;;;;;;;;;4947266;28;20200;-62
2022/09/13 07:46:16;;;;;;;7.00;2.93;;;;;;;;;;4947303;29;21372;-63
2022/09/13 07:48:44;;;;;;;6.57;3.60;;;;;;;;;;4946920;29;20206;-63
2022/09/13 07:51:14;;;;;;;7.23;3.20;;;;;;;;;;4948025;29;20202;-63
2022/09/13 07:53:42;;;;;;;5.63;3.30;;;;;;;;;;4946111;29;20205;-63
2022/09/13 07:56:10;;;;;;;5.70;3.50;;;;;;;;;;4927878;29;20218;-63
2022/09/13 07:58:37;;;;;;;4.83;3.60;;;;;;;;;;4927965;29;20203;-63
2022/09/13 08:01:05;;;;;;;4.53;3.33;;;;;;;;;;4942557;28;20254;-63
2022/09/13 08:03:33;;;;;;;6.23;3.70;;;;;;;;;;4928777;29;20289;-63
2022/09/13 08:06:00;;;;;;;4.77;3.67;;;;;;;;;;4928347;29;20226;-64
2022/09/13 08:08:28;;;;;;;4.47;3.67;;;;;;;;;;4929015;29;20762;-61
2022/09/13 08:10:54;;;;;;;6.47;3.80;;;;;;;;;;4928024;29;20187;-61
2022/09/13 08:13:22;;;;;;;4.27;3.83;;;;;;;;;;4926154;29;20590;-61
2022/09/13 08:15:48;;;;;;;5.63;3.87;;;;;;;;;;4927566;28;20229;-61
2022/09/13 08:18:16;;;;;;;4.67;3.80;;;;;;;;;;4926853;29;20705;-61
2022/09/13 08:20:42;;;;;;;6.57;4.20;;;;;;;;;;4941719;29;20595;-62
2022/09/13 08:23:10;;;;;;;6.73;3.87;;;;;;;;;;4927709;29;20213;-62
2022/09/13 08:25:37;;;;;;;6.03;4.47;;;;;;;;;;4927503;29;20191;-61
2022/09/13 08:28:05;;;;;;;5.90;4.07;;;;;;;;;;4925766;29;20647;-60
2022/09/13 08:30:34;;;;;;;6.87;4.47;;;;;;;;;;4927481;29;20694;-60
2022/09/13 08:33:04;;;;;;;6.57;4.27;;;;;;;;;;4927233;29;20205;-60
2022/09/13 08:35:31;;;;;;;6.50;4.53;;;;;;;;;;4925952;29;20338;-62
2022/09/13 08:37:58;;;;;;;5.27;4.27;;;;;;;;;;4926981;29;20200;-61
2022/09/13 08:40:29;;;;;;;6.77;4.80;;;;;;;;;;4926858;29;20234;-61
2022/09/13 08:42:59;;;;;;;7.20;4.90;;;;;;;;;;4925924;29;20203;-61
2022/09/13 08:45:26;;;;;;;6.63;4.73;;;;;;;;;;4926340;29;20206;-62
2022/09/13 08:47:55;;;;;;;6.37;4.97;;;;;;;;;;4924118;29;20202;-61
2022/09/13 08:50:25;;;;;;;9.30;4.67;;;;;;;;;;4925660;29;20722;-61
2022/09/13 08:52:54;;;;;;;7.57;4.83;;;;;;;;;;4926707;29;20195;-62
2022/09/13 08:55:35;;;;;;;5.47;4.67;;;;;;;;;;4927022;29;20301;-61
2022/09/13 08:58:05;;;;;;;5.97;4.97;;;;;;;;;;4927847;29;20681;-61
2022/09/13 09:00:34;;;;;;;6.07;4.33;;;;;;;;;;4924754;29;20222;-61
2022/09/13 09:03:10;;;;;;;5.20;4.40;;;;;;;;;;4926830;29;20198;-61
2022/09/13 09:05:55;;;;;;;5.60;4.73;;;;;;;;;;4927395;29;20198;-61
2022/09/13 09:08:42;;;;;;;8.23;4.77;;;;;;;;;;4926160;29;20234;-62
2022/09/13 09:11:21;;;;;;;6.70;4.80;;;;;;;;;;4926105;29;20209;-61
2022/09/13 09:14:02;;;;;;;7.63;5.37;;;;;;;;;;4926260;29;20202;-61
2022/09/13 09:16:49;;;;;;;6.30;5.23;;;;;;;;;;4926003;29;20524;-61
2022/09/13 09:19:16;;;;;;;6.03;4.97;;;;;;;;;;4927082;29;20207;-61
2022/09/13 09:21:43;;;;;;;9.07;5.73;;;;;;;;;;4926648;29;20242;-62
2022/09/13 09:24:11;;;;;;;7.47;5.63;;;;;;;;;;4926560;29;20222;-61
2022/09/13 09:26:38;;;;;;;6.97;5.43;;;;;;;;;;4923523;29;20199;-60
2022/09/13 09:29:14;;;;;;;6.57;5.57;;;;;;;;;;4927231;29;20198;-61
2022/09/13 09:31:51;;;;;;;7.27;5.20;;;;;;;;;;4931715;29;20202;-60
2022/09/13 09:34:41;;;;;;;6.90;5.07;;;;;;;;;;4944389;29;20229;-61
2022/09/13 09:37:20;;;;;;;6.80;5.13;;;;;;;;;;4933361;29;20195;-60
2022/09/13 09:39:47;;;;;;;7.97;5.90;;;;;;;;;;4932723;29;20230;-60
2022/09/13 09:42:16;;;;;;;8.33;5.77;;;;;;;;;;4932616;29;20336;-60
2022/09/13 09:44:44;;;;;;;8.30;6.10;;;;;;;;;;4931533;29;20516;-60
2022/09/13 09:47:27;;;;;;;7.27;6.37;;;;;;;;;;4946746;28;20674;-60
2022/09/13 09:50:10;;;;;;;7.13;6.33;;;;;;;;;;4933417;29;20258;-60
2022/09/13 09:52:56;;;;;;;9.87;6.60;;;;;;;;;;4933336;28;20246;-60
2022/09/13 09:55:29;;;;;;;9.30;6.87;;;;;;;;;;4931663;29;20234;-60
2022/09/13 09:57:57;;;;;;;8.37;6.57;;;;;;;;;;4933314;28;20209;-60
2022/09/13 10:00:25;;;;;;;8.67;7.00;;;;;;;;;;4933015;29;20187;-60
2022/09/13 10:02:53;;;;;;;8.40;6.73;;;;;;;;;;4932486;29;20202;-60
2022/09/13 10:05:20;;;;;;;9.83;7.23;;;;;;;;;;4923731;29;20198;-61
2022/09/13 10:07:52;;;;;;;8.30;7.20;;;;;;;;;;4932750;29;20203;-60
2022/09/13 10:10:23;;;;;;;8.43;7.10;;;;;;;;;;4933137;29;20198;-60
2022/09/13 10:12:51;;;;;;;8.90;7.60;;;;;;;;;;4933198;28;20606;-60
2022/09/13 10:15:19;;;;;;;11.40;7.10;;;;;;;;;;4933016;29;20735;-60
2022/09/13 10:18:04;;;;;;;9.27;7.07;;;;;;;;;;4919138;29;20273;-60
2022/09/13 10:21:01;;;;;;;8.60;7.20;;;;;;;;;;4932314;29;20284;-60
2022/09/13 10:23:28;;;;;;;8.87;6.80;;;;;;;;;;4932325;29;20330;-60
2022/09/13 10:26:05;;;;;;;7.67;6.60;;;;;;;;;;4932429;29;20194;-60
2022/09/13 10:28:33;;;;;;;8.07;6.47;;;;;;;;;;4933028;29;20732;-60
2022/09/13 10:31:08;;;;;;;9.37;6.93;;;;;;;;;;4947587;29;20195;-60
2022/09/13 10:33:41;;;;;;;6.93;6.23;;;;;;;;;;4946784;29;20198;-60
2022/09/13 10:36:11;;;;;;;6.37;5.77;;;;;;;;;;4947587;28;20199;-60
2022/09/13 10:38:41;;;;;;;7.10;6.40;;;;;;;;;;4932830;29;20299;-60
2022/09/13 10:41:20;;;;;;;7.27;6.57;;;;;;;;;;4946984;29;20289;-60
2022/09/13 10:43:46;;;;;;;8.27;5.90;;;;;;;;;;4946591;28;20233;-60
2022/09/13 10:46:13;;;;;;;7.60;6.80;;;;;;;;;;4947484;28;20558;-60
2022/09/13 10:48:45;;;;;;;6.60;5.70;;;;;;;;;;4947211;29;20330;-60
2022/09/13 10:51:35;;;;;;;9.07;5.87;;;;;;;;;;4949479;28;20671;-59
2022/09/13 10:54:16;;;;;;;6.20;5.60;;;;;;;;;;4933290;29;20209;-59
2022/09/13 10:56:44;;;;;;;6.30;5.70;;;;;;;;;;4935942;29;20284;-60
2022/09/13 10:59:16;;;;;;;6.20;5.60;;;;;;;;;;4946435;28;20243;-60
2022/09/13 11:01:46;;;;;;;7.73;5.50;;;;;;;;;;4934277;28;20199;-59
2022/09/13 11:04:13;;;;;;;6.47;5.67;;;;;;;;;;4950549;28;20206;-59
2022/09/13 11:06:41;;;;;;;8.60;5.60;;;;;;;;;;4935880;29;20237;-60
2022/09/13 11:09:12;;;;;;;8.53;5.70;;;;;;;;;;4935767;29;20205;-60
2022/09/13 11:11:39;;;;;;;6.73;5.17;;;;;;;;;;4950953;29;20602;-60
2022/09/13 11:14:24;;;;;;;7.00;5.37;;;;;;;;;;4934378;29;20222;-59
2022/09/13 11:17:17;;;;;;;5.97;4.77;;;;;;;;;;4935847;29;20324;-60
2022/09/13 11:19:44;;;;;;;5.33;4.83;;;;;;;;;;4934648;29;20238;-60
2022/09/13 11:22:17;;;;;;;5.33;4.63;;;;;;;;;;4935735;29;20230;-60
2022/09/13 11:24:46;;;;;;;5.47;4.60;;;;;;;;;;4935542;29;20621;-59
2022/09/13 11:27:15;;;;;;;6.07;4.80;;;;;;;;;;4935545;29;20199;-63
2022/09/13 11:29:49;;;;;;;5.50;4.60;;;;;;;;;;4935472;29;20191;-59
2022/09/13 11:32:39;;;;;;;5.77;4.77;;;;;;;;;;4949456;28;20250;-60
2022/09/13 11:35:24;;;;;;;5.57;4.57;;;;;;;;;;4942767;29;20217;-61
2022/09/13 11:37:51;;;;;;;6.90;4.60;;;;;;;;;;4935180;29;20523;-60
2022/09/13 11:40:29;;;;;;;5.70;4.70;;;;;;;;;;4950052;29;20190;-60
2022/09/13 11:42:56;;;;;;;5.60;5.00;;;;;;;;;;4935000;28;20198;-60
2022/09/13 11:45:25;;;;;;;5.70;5.10;;;;;;;;;;4935286;29;20559;-59
2022/09/13 11:47:52;;;;;;;5.50;5.00;;;;;;;;;;4934049;29;20191;-60
2022/09/13 11:50:28;;;;;;;5.87;5.20;;;;;;;;;;4935353;29;20210;-60
2022/09/13 11:53:08;;;;;;;6.20;5.33;;;;;;;;;;4933755;29;20202;-59
2022/09/13 11:55:38;;;;;;;5.90;5.00;;;;;;;;;;4935152;29;20685;-59
2022/09/13 11:58:09;;;;;;;5.30;4.73;;;;;;;;;;4934614;29;20281;-60
2022/09/13 12:00:39;;;;;;;5.67;5.07;;;;;;;;;;4934925;29;20262;-59
2022/09/13 12:03:05;;;;;;;5.87;5.27;;;;;;;;;;4933390;29;20701;-60
2022/09/13 12:05:34;;;;;;;6.00;5.40;;;;;;;;;;4934053;29;20737;-60
2022/09/13 12:08:12;;;;;;;6.23;5.50;;;;;;;;;;4934459;29;20197;-60
2022/09/13 12:10:55;;;;;;;5.63;4.60;;;;;;;;;;4949514;29;20194;-59
2022/09/13 12:13:26;;;;;;;7.20;5.07;;;;;;;;;;4949386;28;20586;-59
2022/09/13 12:15:58;;;;;;;5.10;4.60;;;;;;;;;;4949174;29;20226;-60
2022/09/13 12:37:29;;;;;;;5.83;4.60;;;;;;;;;;4817361;29;20209;-59
2022/09/13 12:40:42;;;;;;;6.00;5.07;;;;;;;;;;4801570;29;20679;-60
2022/09/13 12:43:54;;;;;;;7.53;5.00;;;;;;;;;;4819848;29;20211;-60
2022/09/13 12:46:29;;;;;;;7.40;6.00;;;;;;;;;;4818283;29;20262;-60
2022/09/13 12:49:15;;;;;;;8.10;5.30;;;;;;;;;;4820120;29;20203;-60
2022/09/13 12:51:48;;;;;;;7.67;5.73;;;;;;;;;;4819973;29;20238;-60
2022/09/13 12:54:22;;;;;;;7.07;5.97;;;;;;;;;;4820246;29;20199;-60
2022/09/13 12:57:02;;;;;;;6.23;5.60;;;;;;;;;;4812540;29;20241;-59
2022/09/13 12:59:34;;;;;;;6.13;5.53;;;;;;;;;;4875231;29;20268;-59
2022/09/13 13:02:20;;;;;;;6.70;6.00;;;;;;;;;;4878864;29;20232;-59
2022/09/13 13:04:48;;;;;;;7.87;6.13;;;;;;;;;;4933704;29;20190;-59
2022/09/13 13:07:18;;;;;;;6.60;5.87;;;;;;;;;;4948384;29;20238;-59
2022/09/13 13:09:47;;;;;;;6.93;6.23;;;;;;;;;;4933683;29;20194;-58
2022/09/13 13:12:32;;;;;;;6.30;5.70;;;;;;;;;;4932778;29;20254;-59
2022/09/13 13:15:19;;;;;;;6.10;5.30;;;;;;;;;;4933494;29;20554;-58
2022/09/13 13:17:47;;;;;;;6.97;6.00;;;;;;;;;;4921710;29;20199;-59
2022/09/13 13:20:32;;;;;;;6.53;5.30;;;;;;;;;;4932509;29;20195;-59
2022/09/13 13:23:22;;;;;;;6.70;5.60;;;;;;;;;;4921871;29;20186;-59
2022/09/13 13:26:08;;;;;;;6.43;5.80;;;;;;;;;;4930484;29;20924;-59
2022/09/13 13:28:45;;;;;;;6.97;5.70;;;;;;;;;;4933605;29;20273;-61
2022/09/13 13:31:28;;;;;;;6.50;5.40;;;;;;;;;;4932676;29;20206;-60
2022/09/13 13:33:57;;;;;;;6.40;5.60;;;;;;;;;;4947974;28;20658;-60
2022/09/13 13:36:28;;;;;;;6.73;5.40;;;;;;;;;;4947917;29;20207;-59
2022/09/13 13:38:55;;;;;;;6.53;5.70;;;;;;;;;;4933337;29;20198;-59
2022/09/13 13:41:37;;;;;;;6.43;5.50;;;;;;;;;;4932740;29;20198;-60
2022/09/13 13:44:30;;;;;;;7.10;6.00;;;;;;;;;;4932768;29;20219;-59
2022/09/13 13:47:06;;;;;;;7.77;5.80;;;;;;;;;;4925270;29;20209;-60
2022/09/13 13:49:34;;;;;;;6.83;5.90;;;;;;;;;;4932900;29;20202;-61
2022/09/13 13:52:09;;;;;;;6.67;5.93;;;;;;;;;;4933299;29;20206;-60
2022/09/13 13:54:46;;;;;;;6.77;6.07;;;;;;;;;;4933202;29;20661;-60
2022/09/13 13:57:31;;;;;;;7.63;6.60;;;;;;;;;;4921239;29;20229;-60
2022/09/13 14:00:16;;;;;;;8.37;6.27;;;;;;;;;;4932378;29;20288;-60
2022/09/13 14:02:49;;;;;;;8.20;6.10;;;;;;;;;;4932990;29;20186;-60
2022/09/13 14:05:40;;;;;;;6.87;5.87;;;;;;;;;;4932923;29;20198;-61
2022/09/13 14:08:13;;;;;;;9.77;6.47;;;;;;;;;;4925484;29;20257;-60
2022/09/13 14:10:52;;;;;;;8.17;6.30;;;;;;;;;;4933028;28;20195;-60
2022/09/13 14:13:19;;;;;;;7.07;5.97;;;;;;;;;;4933308;29;20469;-60
2022/09/13 14:15:50;;;;;;;7.40;6.23;;;;;;;;;;4932812;29;20203;-60
2022/09/13 14:18:37;;;;;;;8.67;6.33;;;;;;;;;;4931132;29;20571;-60
2022/09/13 14:21:17;;;;;;;7.73;6.63;;;;;;;;;;4929285;29;20206;-60
2022/09/13 14:23:43;;;;;;;7.47;6.63;;;;;;;;;;4932828;29;20250;-60
2022/09/13 14:26:10;;;;;;;8.17;6.67;;;;;;;;;;4949796;29;20191;-60
2022/09/13 14:28:37;;;;;;;8.47;6.30;;;;;;;;;;4936464;29;20237;-61
2022/09/13 14:31:04;;;;;;;7.60;6.43;;;;;;;;;;4923452;29;20209;-61
2022/09/13 14:33:33;;;;;;;7.33;6.47;;;;;;;;;;4927741;29;20214;-61
2022/09/13 14:36:03;;;;;;;8.03;6.67;;;;;;;;;;4929033;29;20215;-60
2022/09/13 14:38:34;;;;;;;9.23;7.57;;;;;;;;;;4925441;29;20219;-60
2022/09/13 14:41:11;;;;;;;7.80;7.00;;;;;;;;;;4930421;29;20195;-59
2022/09/13 14:43:38;;;;;;;12.83;6.80;;;;;;;;;;4928336;29;20246;-60
2022/09/13 14:46:14;;;;;;;7.57;6.60;;;;;;;;;;4928002;29;20211;-59
2022/09/13 14:48:44;;;;;;;12.37;7.80;;;;;;;;;;4928245;29;20221;-59
2022/09/13 14:51:19;;;;;;;8.33;7.30;;;;;;;;;;4928439;29;20527;-59
2022/09/13 14:53:47;;;;;;;8.13;7.33;;;;;;;;;;4929054;29;20827;-60
2022/09/13 14:56:19;;;;;;;9.93;8.10;;;;;;;;;;4930386;29;20313;-59
2022/09/13 14:58:57;;;;;;;10.97;8.63;;;;;;;;;;4929152;29;20210;-60
2022/09/13 15:01:28;;;;;;;9.33;8.33;;;;;;;;;;4929092;29;20206;-59
2022/09/13 15:03:55;;;;;;;9.87;8.00;;;;;;;;;;4929873;29;20195;-59
2022/09/13 15:06:29;;;;;;;10.93;8.50;;;;;;;;;;4927113;29;20309;-59
2022/09/13 15:08:59;;;;;;;11.37;8.70;;;;;;;;;;4936128;28;20713;-60
2022/09/13 15:11:34;;;;;;;11.63;9.53;;;;;;;;;;4935835;29;20199;-59
2022/09/13 15:14:21;;;;;;;11.60;10.40;;;;;;;;;;4935506;29;20198;-59
2022/09/13 15:16:49;;;;;;;12.83;10.57;;;;;;;;;;4931980;29;20243;-60
2022/09/13 15:19:16;;;;;;;13.47;11.23;;;;;;;;;;4935791;29;20191;-59
2022/09/13 15:21:44;;;;;;;15.43;12.23;;;;;;;;;;4924996;29;20196;-60